Time;durP1;ratioP1;P1;durP2;ratioP2;P2;SDS_P1;SDS_P2;PMS_P1;PMS_P2;Temp;Humidity;BMP_temperature;BMP_pressure;BME280_temperature;BME280_humidity;BME280_pressure;Samples;Min_cycle;Max_cycle;Signal;HPM_P1;HPM_P2
2023/06/09 00:00:45;;;;;;;;;;;;;;;29.79;33.59;93868.31;4948535;28;7051;-56
2023/06/09 00:03:23;;;;;;;;;;;;;;;29.77;33.62;93864.63;4932637;28;7128;-56
2023/06/09 00:05:50;;;;;;;;;;;;;;;29.76;33.29;93860.34;4949754;28;7521;-56
2023/06/09 00:08:17;;;;;;;;;;;;;;;29.78;32.91;93863.31;4949399;28;9105;-56
2023/06/09 00:10:46;;;;;;;;;;;;;;;29.76;33.68;93861.09;4949823;28;8725;-56
2023/06/09 00:13:17;;;;;;;;;;;;;;;29.75;33.66;93859.59;4946417;28;9795;-56
2023/06/09 00:15:43;;;;;;;;;;;;;;;29.75;33.33;93858.88;4946621;28;9390;-56
2023/06/09 00:18:09;;;;;;;;;;;;;;;29.72;33.29;93857.16;4929187;28;9066;-56
2023/06/09 00:20:35;;;;;;;;;;;;;;;29.74;33.28;93862.94;4932422;28;7206;-56
2023/06/09 00:23:02;;;;;;;;;;;;;;;29.73;33.59;93855.88;4956555;28;7128;-56
2023/06/09 00:25:28;;;;;;;;;;;;;;;29.72;32.31;93860.69;4963708;28;9073;-56
2023/06/09 00:27:54;;;;;;;;;;;;;;;29.72;32.76;93848.84;4964218;28;6860;-56
2023/06/09 00:30:25;;;;;;;;;;;;;;;29.73;33.13;93855.88;4951503;28;9309;-56
2023/06/09 00:33:12;;;;;;;;;;;;;;;29.71;32.85;93859.19;4963582;28;7563;-56
2023/06/09 00:35:49;;;;;;;;;;;;;;;29.70;32.60;93860.50;4949776;28;9118;-56
2023/06/09 00:38:15;;;;;;;;;;;;;;;29.68;33.17;93860.31;5002577;28;8934;-56
2023/06/09 00:40:42;;;;;;;;;;;;;;;29.69;33.61;93861.03;5001860;28;7612;-56
2023/06/09 00:43:11;;;;;;;;;;;;;;;29.67;33.09;93852.53;5001718;28;7002;-56
2023/06/09 00:45:46;;;;;;;;;;;;;;;29.66;32.75;93851.06;4999223;28;7256;-56
2023/06/09 00:48:15;;;;;;;;;;;;;;;29.67;33.59;93856.06;5016402;28;8114;-56
2023/06/09 00:50:47;;;;;;;;;;;;;;;29.67;32.77;93852.53;5006051;28;7875;-56
2023/06/09 00:53:59;;;;;;;;;;;;;;;29.67;33.37;93853.28;5009003;28;7064;-55
2023/06/09 00:56:39;;;;;;;;;;;;;;;29.67;32.79;93850.50;4968824;28;9042;-56
2023/06/09 00:59:15;;;;;;;;;;;;;;;29.62;32.66;93850.69;4966293;28;7317;-56
2023/06/09 01:01:57;;;;;;;;;;;;;;;29.60;33.57;93842.19;4981407;28;7131;-55
2023/06/09 01:04:49;;;;;;;;;;;;;;;29.63;32.28;93850.13;4981457;28;8654;-56
2023/06/09 01:07:54;;;;;;;;;;;;;;;29.63;32.92;93852.16;4965976;28;7023;-56
2023/06/09 01:11:16;;;;;;;;;;;;;;;29.63;32.63;93857.69;4968188;28;7263;-56
2023/06/09 01:13:53;;;;;;;;;;;;;;;29.61;32.05;93843.66;4944322;28;8409;-55
2023/06/09 01:16:47;;;;;;;;;;;;;;;29.63;32.75;93846.59;4929716;29;9130;-56
2023/06/09 01:19:34;;;;;;;;;;;;;;;29.60;32.58;93837.38;4947378;28;7868;-56
2023/06/09 01:22:56;;;;;;;;;;;;;;;29.59;33.28;93835.91;4930794;28;8594;-56
2023/06/09 01:25:43;;;;;;;;;;;;;;;29.57;32.64;93844.03;4867430;29;7293;-55
2023/06/09 01:28:40;;;;;;;;;;;;;;;29.58;32.14;93844.78;4856725;29;7055;-56
2023/06/09 01:31:46;;;;;;;;;;;;;;;29.56;32.72;93841.78;4857118;29;7075;-55
2023/06/09 01:34:28;;;;;;;;;;;;;;;29.53;32.20;93846.41;4863609;29;7147;-56
2023/06/09 01:36:54;;;;;;;;;;;;;;;29.55;33.46;93843.84;4866617;29;7262;-56
2023/06/09 01:39:23;;;;;;;;;;;;;;;29.54;32.41;93850.66;4866437;29;7200;-56
2023/06/09 01:42:06;;;;;;;;;;;;;;;29.54;32.34;93849.91;4865800;29;6949;-55
2023/06/09 01:44:36;;;;;;;;;;;;;;;29.52;32.64;93842.16;4865630;29;7043;-56
2023/06/09 01:47:05;;;;;;;;;;;;;;;29.56;32.83;93841.78;4876337;29;8993;-56
2023/06/09 01:49:48;;;;;;;;;;;;;;;29.54;33.37;93839.56;4907563;29;7627;-56
2023/06/09 01:52:53;;;;;;;;;;;;;;;29.54;32.82;93833.28;4906793;29;9345;-56
2023/06/09 01:55:32;;;;;;;;;;;;;;;29.53;33.24;93831.81;4904980;29;8949;-56
2023/06/09 01:58:41;;;;;;;;;;;;;;;29.53;32.10;93827.03;4906178;29;7044;-56
2023/06/09 02:01:10;;;;;;;;;;;;;;;29.51;32.57;93831.63;4978338;28;7386;-56
2023/06/09 02:03:49;;;;;;;;;;;;;;;29.51;31.94;93824.06;4985538;28;9098;-56
2023/06/09 02:06:19;;;;;;;;;;;;;;;29.50;32.69;93827.38;5013313;28;7239;-56
2023/06/09 02:08:48;;;;;;;;;;;;;;;29.50;33.03;93830.13;5003773;28;8729;-56
2023/06/09 02:11:16;;;;;;;;;;;;;;;29.49;32.37;93820.34;5002893;28;7509;-56
2023/06/09 02:14:22;;;;;;;;;;;;;;;29.48;32.87;93832.72;5001444;28;9079;-56
2023/06/09 02:16:54;;;;;;;;;;;;;;;29.48;32.73;93829.94;5006970;28;7105;-57
2023/06/09 02:19:22;;;;;;;;;;;;;;;29.47;31.97;93828.47;5025451;28;7121;-56
2023/06/09 02:21:50;;;;;;;;;;;;;;;29.46;32.49;93835.28;5006764;28;7049;-56
2023/06/09 02:24:20;;;;;;;;;;;;;;;29.44;32.18;93829.56;5007800;28;8767;-57
2023/06/09 02:26:50;;;;;;;;;;;;;;;29.45;33.04;93834.56;5011436;28;7011;-56
2023/06/09 02:29:19;;;;;;;;;;;;;;;29.45;32.30;93833.84;5004810;28;8905;-56
2023/06/09 02:31:45;;;;;;;;;;;;;;;29.44;31.80;93826.81;5005880;28;7257;-56
2023/06/09 02:34:25;;;;;;;;;;;;;;;29.42;32.70;93819.03;5011992;28;7397;-56
2023/06/09 02:36:54;;;;;;;;;;;;;;;29.43;32.32;93822.53;5010244;28;7271;-56
2023/06/09 02:39:37;;;;;;;;;;;;;;;29.42;32.28;93832.91;5021863;28;7402;-56
2023/06/09 02:42:38;;;;;;;;;;;;;;;29.42;32.70;93826.59;5005721;28;7115;-57
2023/06/09 02:45:22;;;;;;;;;;;;;;;29.43;32.83;93830.84;4985158;28;7273;-56
2023/06/09 02:47:48;;;;;;;;;;;;;;;29.40;31.73;93829.19;4987767;28;8957;-56
2023/06/09 02:50:26;;;;;;;;;;;;;;;29.38;32.01;93821.44;5002931;28;8101;-56
2023/06/09 02:53:09;;;;;;;;;;;;;;;29.36;32.02;93824.00;5004218;28;7247;-56
2023/06/09 02:55:56;;;;;;;;;;;;;;;29.37;32.50;93819.19;5005261;28;7138;-56
2023/06/09 02:58:26;;;;;;;;;;;;;;;29.37;32.64;93822.72;4992760;28;6999;-56
2023/06/09 03:00:55;;;;;;;;;;;;;;;29.34;31.92;93821.03;5005804;28;7015;-56
2023/06/09 03:03:20;;;;;;;;;;;;;;;29.35;32.29;93819.00;4986999;28;7231;-56
2023/06/09 03:05:49;;;;;;;;;;;;;;;29.34;32.15;93825.84;4998378;28;7254;-56
2023/06/09 03:08:15;;;;;;;;;;;;;;;29.33;32.00;93825.09;4986138;28;7780;-56
2023/06/09 03:10:41;;;;;;;;;;;;;;;29.33;32.59;93824.34;4983544;28;7996;-56
2023/06/09 03:13:08;;;;;;;;;;;;;;;29.31;31.93;93818.63;4981669;28;9336;-56
2023/06/09 03:15:34;;;;;;;;;;;;;;;29.32;32.29;93820.13;4996362;28;9025;-56
2023/06/09 03:18:01;;;;;;;;;;;;;;;29.31;32.09;93818.63;4979163;28;9077;-56
2023/06/09 03:20:48;;;;;;;;;;;;;;;29.30;32.32;93814.38;5001477;28;7284;-56
2023/06/09 03:23:27;;;;;;;;;;;;;;;29.31;32.22;93815.84;5008313;28;7397;-56
2023/06/09 03:26:05;;;;;;;;;;;;;;;29.29;32.46;93813.66;5024278;28;8950;-56
2023/06/09 03:28:34;;;;;;;;;;;;;;;29.28;32.67;93806.63;5007244;28;8460;-56
2023/06/09 03:31:01;;;;;;;;;;;;;;;29.26;32.75;93811.22;5004480;28;7140;-55
2023/06/09 03:33:29;;;;;;;;;;;;;;;29.28;31.88;93803.84;5008730;28;8275;-56
2023/06/09 03:36:15;;;;;;;;;;;;;;;29.27;31.56;93815.47;5004183;28;7130;-56
2023/06/09 03:39:18;;;;;;;;;;;;;;;29.26;32.82;93817.50;5009407;28;9017;-56
2023/06/09 03:42:10;;;;;;;;;;;;;;;29.25;32.78;93816.03;4989858;28;6959;-56
2023/06/09 03:44:36;;;;;;;;;;;;;;;29.26;31.96;93816.75;4971432;28;7365;-56
2023/06/09 03:47:09;;;;;;;;;;;;;;;29.23;32.85;93821.34;4987830;28;10015;-55
2023/06/09 03:49:49;;;;;;;;;;;;;;;29.23;32.39;93815.09;4987787;28;8828;-56
2023/06/09 03:52:42;;;;;;;;;;;;;;;29.22;31.83;93819.91;4968274;28;7044;-55
2023/06/09 03:55:31;;;;;;;;;;;;;;;29.21;32.18;93823.22;4986317;28;9481;-56
2023/06/09 03:57:58;;;;;;;;;;;;;;;29.20;32.33;93816.94;4986954;28;7439;-56
2023/06/09 04:01:00;;;;;;;;;;;;;;;29.21;31.64;93823.22;4970854;28;9520;-56
2023/06/09 04:03:38;;;;;;;;;;;;;;;29.20;31.84;93816.94;4935123;28;9437;-56
2023/06/09 04:06:24;;;;;;;;;;;;;;;29.19;32.51;93826.53;4936687;28;9809;-56
2023/06/09 04:09:13;;;;;;;;;;;;;;;29.20;31.90;93830.03;4934727;28;8741;-56
2023/06/09 04:11:42;;;;;;;;;;;;;;;29.20;32.02;93832.81;4951477;28;7038;-55
2023/06/09 04:14:18;;;;;;;;;;;;;;;29.17;32.15;93831.88;4934987;28;8611;-56
2023/06/09 04:16:50;;;;;;;;;;;;;;;29.15;31.98;93828.88;4969725;28;8542;-56
2023/06/09 04:19:29;;;;;;;;;;;;;;;29.17;31.71;93831.88;4967404;28;9240;-56
2023/06/09 04:22:10;;;;;;;;;;;;;;;29.16;32.00;93835.94;4970820;28;8018;-56
2023/06/09 04:24:37;;;;;;;;;;;;;;;29.17;32.75;93840.19;4971198;28;7312;-56
2023/06/09 04:27:42;;;;;;;;;;;;;;;29.17;32.87;93836.69;4968713;28;7530;-55
2023/06/09 04:30:37;;;;;;;;;;;;;;;29.19;33.28;93829.28;4971308;28;6986;-56
2023/06/09 04:33:07;;;;;;;;;;;;;;;29.17;33.17;93826.34;4910722;29;7350;-56
2023/06/09 04:35:53;;;;;;;;;;;;;;;29.19;33.29;93823.75;4913427;29;7058;-56
2023/06/09 04:38:23;;;;;;;;;;;;;;;29.21;33.48;93831.53;4959988;28;9194;-56
2023/06/09 04:41:05;;;;;;;;;;;;;;;29.21;33.37;93835.03;4949190;28;7271;-55
2023/06/09 04:43:41;;;;;;;;;;;;;;;29.19;33.02;93834.84;4947941;28;7064;-55
2023/06/09 04:46:38;;;;;;;;;;;;;;;29.21;32.29;93840.56;4962947;28;7039;-56
2023/06/09 04:49:16;;;;;;;;;;;;;;;29.19;33.59;93834.13;4947682;28;7130;-56
2023/06/09 04:51:47;;;;;;;;;;;;;;;29.19;33.15;93836.88;4949807;28;8229;-56
2023/06/09 04:54:28;;;;;;;;;;;;;;;29.19;32.42;93834.84;4962090;28;9172;-55
2023/06/09 04:56:58;;;;;;;;;;;;;;;29.18;33.15;93841.66;4951626;28;8979;-56
2023/06/09 04:59:32;;;;;;;;;;;;;;;29.19;32.88;93837.59;4953592;28;9082;-56
2023/06/09 05:01:59;;;;;;;;;;;;;;;29.16;32.72;93837.94;4952048;28;7264;-57
2023/06/09 05:04:45;;;;;;;;;;;;;;;29.17;32.71;93834.63;4951554;28;6999;-56
2023/06/09 05:07:14;;;;;;;;;;;;;;;29.15;32.76;93833.66;4963470;28;7125;-56
2023/06/09 05:09:40;;;;;;;;;;;;;;;29.16;33.42;93841.47;4974838;28;7061;-57
2023/06/09 05:12:07;;;;;;;;;;;;;;;29.18;32.81;93838.16;4995988;28;7453;-56
2023/06/09 05:14:33;;;;;;;;;;;;;;;29.20;32.03;93835.56;4998475;28;7003;-56
2023/06/09 05:17:33;;;;;;;;;;;;;;;29.14;33.31;93837.75;5002042;28;7462;-56
2023/06/09 05:20:00;;;;;;;;;;;;;;;29.16;32.35;93840.72;4967435;28;7679;-56
2023/06/09 05:22:37;;;;;;;;;;;;;;;29.14;33.34;93844.03;4967531;28;7165;-57
2023/06/09 05:25:14;;;;;;;;;;;;;;;29.18;33.93;93840.94;4966063;28;6974;-56
2023/06/09 05:27:43;;;;;;;;;;;;;;;29.16;33.12;93843.47;4967871;28;9468;-56
2023/06/09 05:30:11;;;;;;;;;;;;;;;29.17;33.55;93845.00;4963579;28;7111;-56
2023/06/09 05:32:39;;;;;;;;;;;;;;;29.15;33.23;93841.97;4948347;28;7284;-56
2023/06/09 05:35:09;;;;;;;;;;;;;;;29.09;33.41;93837.38;4946852;28;9894;-57
2023/06/09 05:37:40;;;;;;;;;;;;;;;29.08;33.16;93844.19;4964922;28;7282;-57
2023/06/09 05:40:11;;;;;;;;;;;;;;;29.05;33.75;93845.28;4969329;28;7120;-56
2023/06/09 05:43:04;;;;;;;;;;;;;;;29.07;32.93;93845.47;4968588;28;7380;-56
2023/06/09 05:46:02;;;;;;;;;;;;;;;29.06;33.95;93841.22;4950881;28;8963;-57
2023/06/09 05:48:28;;;;;;;;;;;;;;;29.06;33.28;93837.69;4950253;28;7209;-56
2023/06/09 05:51:32;;;;;;;;;;;;;;;29.05;33.76;93842.53;4952945;28;7294;-56
2023/06/09 05:54:13;;;;;;;;;;;;;;;29.02;33.97;93843.59;4972814;28;7196;-56
2023/06/09 05:57:07;;;;;;;;;;;;;;;29.03;33.32;93842.31;5017549;28;9388;-57
2023/06/09 05:59:34;;;;;;;;;;;;;;;29.06;34.10;93837.69;4956057;28;8033;-56
2023/06/09 06:02:05;;;;;;;;;;;;;;;29.04;34.21;93831.97;4954020;28;8760;-57
2023/06/09 06:04:42;;;;;;;;;;;;;;;29.07;33.71;93839.94;4939958;28;8336;-56
2023/06/09 06:07:20;;;;;;;;;;;;;;;29.08;34.38;93846.94;4953523;28;7027;-56
2023/06/09 06:09:55;;;;;;;;;;;;;;;29.08;33.51;93837.88;4954993;28;7934;-57
2023/06/09 06:12:34;;;;;;;;;;;;;;;29.09;34.09;93845.66;4954068;28;7041;-56
2023/06/09 06:15:00;;;;;;;;;;;;;;;29.10;34.82;93841.59;4955245;28;9114;-56
2023/06/09 06:17:27;;;;;;;;;;;;;;;29.12;35.14;93848.63;4954333;28;8572;-56
2023/06/09 06:19:53;;;;;;;;;;;;;;;29.12;36.48;93843.09;4948998;28;7715;-56
2023/06/09 06:22:41;;;;;;;;;;;;;;;29.13;35.22;93855.63;4957629;28;8865;-57
2023/06/09 06:25:18;;;;;;;;;;;;;;;29.13;36.48;93859.16;4954932;28;8782;-57
2023/06/09 06:27:45;;;;;;;;;;;;;;;29.13;35.84;93861.91;4951917;28;7109;-57
2023/06/09 06:30:19;;;;;;;;;;;;;;;29.14;35.87;93852.34;4959946;28;9890;-56
2023/06/09 06:32:54;;;;;;;;;;;;;;;29.14;36.10;93851.59;4962017;28;9000;-57
2023/06/09 06:35:31;;;;;;;;;;;;;;;29.15;35.49;93853.81;4955751;28;7269;-56
2023/06/09 06:37:57;;;;;;;;;;;;;;;29.15;35.43;93859.34;5006206;28;7120;-56
2023/06/09 06:40:48;;;;;;;;;;;;;;;29.16;36.25;93857.31;5013193;28;9013;-56
2023/06/09 06:43:16;;;;;;;;;;;;;;;29.14;35.74;93859.91;5021849;28;8757;-56
2023/06/09 06:45:55;;;;;;;;;;;;;;;29.16;35.77;93862.88;5005265;28;7099;-55
2023/06/09 06:48:28;;;;;;;;;;;;;;;29.17;35.30;93861.63;5010803;28;7208;-55
2023/06/09 06:50:57;;;;;;;;;;;;;;;29.16;35.44;93857.31;5010632;28;7387;-55
2023/06/09 06:57:15;;;;;;;;;;;;;;;29.17;36.47;93865.09;5007876;28;7022;-56
2023/06/09 06:59:58;;;;;;;;;;;;;;;29.18;35.83;93863.09;5003167;28;8628;-55
2023/06/09 07:02:31;;;;;;;;;;;;;;;29.19;35.84;93861.81;5023821;28;9028;-56
2023/06/09 07:04:59;;;;;;;;;;;;;;;29.19;35.59;93870.13;5009079;28;9317;-56
2023/06/09 07:07:26;;;;;;;;;;;;;;;29.19;35.51;93868.06;5007215;28;8913;-56
2023/06/09 07:09:56;;;;;;;;;;;;;;;29.19;35.73;93864.56;5022180;28;9037;-55
2023/06/09 07:12:32;;;;;;;;;;;;;;;29.19;35.73;93868.06;5005714;28;8708;-56
2023/06/09 07:15:41;;;;;;;;;;;;;;;29.23;35.82;93876.03;5007292;28;7087;-56
2023/06/09 07:18:33;;;;;;;;;;;;;;;29.23;35.37;93876.03;5005584;28;9060;-56
2023/06/09 07:21:18;;;;;;;;;;;;;;;29.23;35.78;93876.75;4988936;28;8086;-55
2023/06/09 07:23:44;;;;;;;;;;;;;;;29.20;36.15;93872.31;4976579;28;7634;-55
2023/06/09 07:26:40;;;;;;;;;;;;;;;29.25;36.58;93867.91;4976003;28;7130;-55
2023/06/09 07:29:16;;;;;;;;;;;;;;;29.22;36.71;93866.22;4915428;29;7046;-55
2023/06/09 07:31:51;;;;;;;;;;;;;;;29.23;35.39;93870.50;4916143;29;8483;-55
2023/06/09 07:34:20;;;;;;;;;;;;;;;29.24;35.53;93869.94;4914732;28;7204;-55
2023/06/09 07:36:50;;;;;;;;;;;;;;;29.25;35.42;93873.47;4916059;29;9325;-55
2023/06/09 07:39:22;;;;;;;;;;;;;;;29.27;35.57;93876.41;4932092;28;7018;-55
2023/06/09 07:42:16;;;;;;;;;;;;;;;29.30;37.21;93876.06;4914536;29;7195;-55
2023/06/09 07:44:55;;;;;;;;;;;;;;;29.31;35.64;93872.00;4861557;29;9189;-55
2023/06/09 07:47:31;;;;;;;;;;;;;;;29.35;36.23;93882.72;4879507;29;7054;-55
2023/06/09 07:49:58;;;;;;;;;;;;;;;29.37;36.07;93882.91;4877182;29;8795;-55
2023/06/09 07:53:00;;;;;;;;;;;;;;;29.39;35.85;93877.56;4877942;29;8786;-56
2023/06/09 07:55:27;;;;;;;;;;;;;;;29.38;35.54;93870.56;4856451;29;7248;-55
2023/06/09 07:58:08;;;;;;;;;;;;;;;29.41;35.59;93877.75;4854270;29;7174;-55
2023/06/09 08:00:38;;;;;;;;;;;;;;;29.39;36.35;93872.03;4858058;29;9330;-55
2023/06/09 08:03:39;;;;;;;;;;;;;;;29.43;36.25;93877.94;4841137;29;9003;-55
2023/06/09 08:06:25;;;;;;;;;;;;;;;29.41;35.64;93872.22;4916740;29;9013;-56
2023/06/09 08:09:10;;;;;;;;;;;;;;;29.44;35.63;93868.34;4930039;29;9180;-55
2023/06/09 08:11:38;;;;;;;;;;;;;;;29.44;35.53;93871.88;4929384;28;9118;-56
2023/06/09 08:14:09;;;;;;;;;;;;;;;29.44;35.42;93860.78;4926663;29;7420;-56
2023/06/09 08:17:32;;;;;;;;;;;;;;;29.47;35.51;93876.31;4931938;28;7671;-56
2023/06/09 08:20:10;;;;;;;;;;;;;;;29.47;35.79;93872.81;4929000;28;7192;-56
2023/06/09 08:22:38;;;;;;;;;;;;;;;29.47;35.17;93865.22;4928261;29;8234;-56
2023/06/09 08:25:17;;;;;;;;;;;;;;;29.49;35.47;93859.16;4927331;29;9122;-56
2023/06/09 08:27:53;;;;;;;;;;;;;;;29.47;35.49;93868.00;4914111;29;9020;-55
2023/06/09 08:30:22;;;;;;;;;;;;;;;29.50;35.93;93866.16;4951957;28;7041;-55
2023/06/09 08:32:57;;;;;;;;;;;;;;;29.48;35.42;93857.66;5004541;28;7216;-55
2023/06/09 08:35:31;;;;;;;;;;;;;;;29.51;35.48;93862.09;5028614;28;6962;-56
2023/06/09 08:37:58;;;;;;;;;;;;;;;29.53;35.37;93867.84;5028953;28;9601;-55
2023/06/09 08:40:25;;;;;;;;;;;;;;;29.50;35.95;93852.31;5029242;28;8737;-56
2023/06/09 08:42:58;;;;;;;;;;;;;;;29.55;35.53;93854.19;5015459;28;7298;-56
2023/06/09 08:45:45;;;;;;;;;;;;;;;29.57;35.50;93857.13;5022106;28;9404;-55
2023/06/09 08:48:23;;;;;;;;;;;;;;;29.57;35.27;93854.38;5004901;28;6971;-55
2023/06/09 08:51:00;;;;;;;;;;;;;;;29.54;35.92;93850.66;5021953;28;7245;-56
2023/06/09 08:53:46;;;;;;;;;;;;;;;29.58;35.05;93851.03;5008356;28;9225;-55
2023/06/09 08:56:21;;;;;;;;;;;;;;;29.59;35.32;93849.75;5004016;28;7273;-55
2023/06/09 08:58:52;;;;;;;;;;;;;;;29.60;35.82;93839.41;5011240;28;9022;-56
2023/06/09 09:01:20;;;;;;;;;;;;;;;29.62;35.75;93840.31;5011445;28;7038;-56
2023/06/09 09:04:06;;;;;;;;;;;;;;;29.63;35.24;93846.59;5005470;28;7844;-55
2023/06/09 09:06:33;;;;;;;;;;;;;;;29.64;36.09;93842.56;5003963;28;7282;-56
2023/06/09 09:09:05;;;;;;;;;;;;;;;29.62;36.31;93840.31;5007881;28;8800;-55
2023/06/09 09:11:44;;;;;;;;;;;;;;;29.64;34.96;93837.03;5010655;28;9345;-55
2023/06/09 09:14:16;;;;;;;;;;;;;;;29.64;34.90;93842.56;5001074;28;7245;-56
2023/06/09 09:16:57;;;;;;;;;;;;;;;29.65;35.82;93832.94;5009859;28;8981;-55
2023/06/09 09:19:36;;;;;;;;;;;;;;;29.65;35.72;93838.47;5009746;28;7217;-55
2023/06/09 09:22:07;;;;;;;;;;;;;;;29.66;35.32;93828.88;5008437;28;7298;-55
2023/06/09 09:24:42;;;;;;;;;;;;;;;29.66;36.07;93832.41;5019725;28;7871;-55
2023/06/09 09:27:22;;;;;;;;;;;;;;;29.66;35.60;93829.63;5001695;28;7147;-55
2023/06/09 09:29:52;;;;;;;;;;;;;;;29.66;35.67;93828.88;5016973;28;7639;-55
2023/06/09 09:32:25;;;;;;;;;;;;;;;29.67;35.71;93835.91;5018284;28;7494;-56
2023/06/09 09:34:52;;;;;;;;;;;;;;;29.66;35.84;93820.56;5006813;28;8980;-55
2023/06/09 09:37:18;;;;;;;;;;;;;;;29.64;36.02;93825.94;5022178;28;7208;-56
2023/06/09 09:39:52;;;;;;;;;;;;;;;29.63;35.10;93821.66;4997465;28;9414;-55
2023/06/09 09:42:20;;;;;;;;;;;;;;;29.61;35.65;93824.25;5004673;28;7233;-55
2023/06/09 09:44:56;;;;;;;;;;;;;;;29.60;35.95;93814.47;5019695;28;9313;-55
2023/06/09 09:47:42;;;;;;;;;;;;;;;29.59;36.29;93818.53;5002621;28;7133;-56
2023/06/09 09:50:10;;;;;;;;;;;;;;;29.60;36.17;93811.69;5022564;28;7291;-55
2023/06/09 09:52:39;;;;;;;;;;;;;;;29.60;36.52;93806.16;5002565;28;9105;-56
2023/06/09 09:55:08;;;;;;;;;;;;;;;29.60;35.95;93809.66;5019470;28;7293;-55
2023/06/09 09:57:36;;;;;;;;;;;;;;;29.58;35.86;93800.44;5004158;28;7248;-56
2023/06/09 10:00:30;;;;;;;;;;;;;;;29.60;36.07;93803.38;5014239;28;9027;-55
2023/06/09 10:03:05;;;;;;;;;;;;;;;29.58;35.84;93797.66;4960557;28;7202;-56
2023/06/09 10:05:35;;;;;;;;;;;;;;;29.61;35.51;93802.09;4972455;28;7427;-56
2023/06/09 10:08:21;;;;;;;;;;;;;;;29.61;35.95;93802.81;4961443;28;9280;-56
2023/06/09 10:11:17;;;;;;;;;;;;;;;29.62;36.17;93792.50;4982782;28;9138;-56
2023/06/09 10:14:23;;;;;;;;;;;;;;;29.61;35.39;93802.81;4967395;28;9041;-56
2023/06/09 10:16:58;;;;;;;;;;;;;;;29.63;35.76;93793.94;4965868;28;9035;-56
2023/06/09 10:19:24;;;;;;;;;;;;;;;29.62;35.56;93795.25;4982817;28;7297;-56
2023/06/09 10:21:57;;;;;;;;;;;;;;;29.62;35.64;93790.44;4976062;28;7256;-56
2023/06/09 10:24:27;;;;;;;;;;;;;;;29.64;36.15;93789.91;4977530;28;7364;-56
2023/06/09 10:26:55;;;;;;;;;;;;;;;29.64;35.24;93787.13;4959636;28;8786;-56
2023/06/09 10:29:25;;;;;;;;;;;;;;;29.65;36.45;93794.13;4976253;28;9109;-56
2023/06/09 10:32:03;;;;;;;;;;;;;;;29.66;35.99;93790.09;4966347;28;9056;-56
2023/06/09 10:34:54;;;;;;;;;;;;;;;29.67;35.55;93791.56;4982299;28;7092;-56
2023/06/09 10:37:33;;;;;;;;;;;;;;;29.68;36.17;93791.03;4981394;28;8763;-56
2023/06/09 10:40:28;;;;;;;;;;;;;;;29.69;36.34;93783.41;4972116;28;9159;-56
2023/06/09 10:43:39;;;;;;;;;;;;;;;29.70;36.56;93779.38;4970834;28;8803;-56
2023/06/09 10:46:13;;;;;;;;;;;;;;;29.71;35.32;93780.88;4986908;28;8921;-56
2023/06/09 10:48:54;;;;;;;;;;;;;;;29.69;35.76;93775.09;4972699;28;9007;-56
2023/06/09 10:51:31;;;;;;;;;;;;;;;29.72;36.08;93772.00;5006991;28;7324;-56
2023/06/09 10:54:10;;;;;;;;;;;;;;;29.72;36.31;93772.00;5015063;28;9283;-56
2023/06/09 10:56:52;;;;;;;;;;;;;;;29.71;35.36;93764.22;5023815;28;9101;-56
2023/06/09 10:59:37;;;;;;;;;;;;;;;29.72;35.54;93763.66;5003620;28;9226;-56
2023/06/09 11:02:27;;;;;;;;;;;;;;;29.72;35.34;93760.91;5023911;28;7342;-56
2023/06/09 11:04:56;;;;;;;;;;;;;;;29.73;35.30;93767.19;5018270;28;7250;-56
2023/06/09 11:07:43;;;;;;;;;;;;;;;29.73;35.88;93761.66;5011902;28;6872;-56
2023/06/09 11:10:13;;;;;;;;;;;;;;;29.76;36.39;93769.63;5004755;28;7447;-56
2023/06/09 11:12:46;;;;;;;;;;;;;;;29.78;35.25;93769.78;5023532;28;7316;-56
2023/06/09 11:15:17;;;;;;;;;;;;;;;29.77;36.03;93759.28;5007585;28;9173;-56
2023/06/09 11:17:52;;;;;;;;;;;;;;;29.79;35.18;93762.22;5006948;28;9102;-56
2023/06/09 11:21:09;;;;;;;;;;;;;;;29.80;35.90;93761.66;5024045;28;9041;-56
2023/06/09 11:24:12;;;;;;;;;;;;;;;29.80;35.08;93755.38;4987925;28;10025;-56
2023/06/09 11:27:20;;;;;;;;;;;;;;;29.82;34.89;93752.78;4987312;28;9118;-56
2023/06/09 11:30:24;;;;;;;;;;;;;;;29.85;35.37;93751.69;4989299;28;7517;-56
2023/06/09 11:33:13;;;;;;;;;;;;;;;29.84;34.27;93743.94;4985101;28;9051;-56
2023/06/09 11:36:02;;;;;;;;;;;;;;;29.86;35.62;93741.34;4985338;28;7307;-57
2023/06/09 11:38:28;;;;;;;;;;;;;;;29.88;35.14;93747.06;4987044;28;7321;-56
2023/06/09 11:41:21;;;;;;;;;;;;;;;29.91;34.40;93732.06;4988136;28;7490;-56
2023/06/09 11:43:58;;;;;;;;;;;;;;;29.94;35.24;93742.06;4991401;28;9294;-56
2023/06/09 11:46:59;;;;;;;;;;;;;;;29.95;34.41;93733.19;4973658;28;8521;-56
2023/06/09 11:49:44;;;;;;;;;;;;;;;29.98;33.77;93729.31;4971534;28;7132;-57
2023/06/09 11:52:25;;;;;;;;;;;;;;;29.98;33.80;93737.63;4973668;28;7231;-56
2023/06/09 11:55:12;;;;;;;;;;;;;;;30.01;33.51;93733.75;4971040;28;7537;-56
2023/06/09 11:57:53;;;;;;;;;;;;;;;30.05;33.64;93731.34;4974733;28;9095;-56
2023/06/09 12:00:42;;;;;;;;;;;;;;;30.07;34.57;93728.75;5001973;28;8881;-56
2023/06/09 12:03:21;;;;;;;;;;;;;;;30.09;33.58;93734.47;5009417;28;7287;-56
2023/06/09 12:05:58;;;;;;;;;;;;;;;30.10;34.31;93726.91;5011419;28;7392;-56
2023/06/09 12:08:27;;;;;;;;;;;;;;;30.10;33.62;93722.06;5009588;28;9055;-56
2023/06/09 12:10:55;;;;;;;;;;;;;;;30.12;33.89;93727.84;5006420;28;7258;-56
2023/06/09 12:13:21;;;;;;;;;;;;;;;30.14;33.36;93713.41;5019920;28;7404;-56
2023/06/09 12:16:01;;;;;;;;;;;;;;;30.17;33.58;93731.69;5005509;28;7028;-56
2023/06/09 12:19:02;;;;;;;;;;;;;;;30.18;34.05;93716.53;5009425;28;9132;-56
2023/06/09 12:22:00;;;;;;;;;;;;;;;30.17;33.46;93715.78;5004024;28;9878;-56
2023/06/09 12:24:31;;;;;;;;;;;;;;;30.18;33.29;93716.53;4987246;28;8838;-56
2023/06/09 12:27:16;;;;;;;;;;;;;;;30.21;33.47;93720.97;5014010;28;7326;-56
2023/06/09 12:30:01;;;;;;;;;;;;;;;30.23;32.95;93707.28;5007262;28;9137;-56
2023/06/09 12:32:35;;;;;;;;;;;;;;;30.22;33.11;93709.31;4985833;28;7545;-56
2023/06/09 12:35:20;;;;;;;;;;;;;;;30.26;32.05;93709.66;5004649;28;7228;-56
2023/06/09 12:37:55;;;;;;;;;;;;;;;30.27;32.88;93708.38;5017864;28;7451;-56
2023/06/09 12:41:03;;;;;;;;;;;;;;;30.32;32.74;93709.53;5001106;28;9128;-56
2023/06/09 12:44:04;;;;;;;;;;;;;;;30.33;32.78;93710.97;4950742;28;7045;-56
2023/06/09 12:46:35;;;;;;;;;;;;;;;30.33;32.91;93699.88;4951513;28;7222;-56
2023/06/09 12:49:10;;;;;;;;;;;;;;;30.34;32.36;93699.31;4946810;28;9234;-56
2023/06/09 12:51:40;;;;;;;;;;;;;;;30.36;31.76;93693.94;4944769;28;7018;-56
2023/06/09 12:54:23;;;;;;;;;;;;;;;30.36;33.04;93688.41;4949084;28;8959;-56
2023/06/09 12:56:58;;;;;;;;;;;;;;;30.40;32.57;93683.22;4945446;28;7901;-56
2023/06/09 12:59:26;;;;;;;;;;;;;;;30.41;32.51;93687.47;4947395;28;8237;-56
2023/06/09 13:01:55;;;;;;;;;;;;;;;30.43;32.80;93684.88;4946472;28;7284;-56
2023/06/09 13:04:30;;;;;;;;;;;;;;;30.45;31.87;93687.81;4933988;28;9168;-56
2023/06/09 13:07:09;;;;;;;;;;;;;;;30.47;32.70;93690.78;4944932;28;6936;-56
2023/06/09 13:09:54;;;;;;;;;;;;;;;30.43;32.34;93676.53;4933865;28;7261;-56
2023/06/09 13:12:21;;;;;;;;;;;;;;;30.44;33.04;93672.47;4949128;28;8527;-56
2023/06/09 13:15:23;;;;;;;;;;;;;;;30.49;31.56;93674.28;4948949;28;7447;-56
2023/06/09 13:17:52;;;;;;;;;;;;;;;30.50;31.52;93669.47;4985975;28;9077;-56
2023/06/09 13:20:31;;;;;;;;;;;;;;;30.49;31.90;93665.97;5004527;28;7282;-56
2023/06/09 13:22:58;;;;;;;;;;;;;;;30.53;32.00;93671.16;4991776;28;7338;-56
2023/06/09 13:25:24;;;;;;;;;;;;;;;30.58;31.35;93669.47;5006324;28;7107;-56
2023/06/09 13:28:01;;;;;;;;;;;;;;;30.58;31.18;93666.69;5004815;28;7046;-56
2023/06/09 13:30:47;;;;;;;;;;;;;;;30.62;31.25;93662.22;5007830;28;9074;-56
2023/06/09 13:33:16;;;;;;;;;;;;;;;30.64;31.15;93667.22;4990370;28;8822;-56
2023/06/09 13:35:45;;;;;;;;;;;;;;;30.63;30.67;93668.50;5003868;28;9091;-56
2023/06/09 13:38:15;;;;;;;;;;;;;;;30.63;30.69;93655.38;5005855;28;9484;-56
2023/06/09 13:40:44;;;;;;;;;;;;;;;30.64;31.34;93658.88;4989816;28;7295;-56
2023/06/09 13:43:44;;;;;;;;;;;;;;;30.68;31.44;93656.47;5008662;28;7278;-56
2023/06/09 13:46:21;;;;;;;;;;;;;;;30.71;31.28;93649.78;4925685;29;7262;-57
2023/06/09 13:48:47;;;;;;;;;;;;;;;30.70;31.56;93643.50;4927012;29;7270;-56
2023/06/09 13:51:16;;;;;;;;;;;;;;;30.75;31.20;93650.16;4920345;29;9131;-56
2023/06/09 13:53:59;;;;;;;;;;;;;;;30.79;30.77;93642.16;4943859;29;7119;-56
2023/06/09 13:56:26;;;;;;;;;;;;;;;30.82;30.57;93644.53;4941862;29;7232;-56
2023/06/09 13:59:02;;;;;;;;;;;;;;;30.84;30.69;93641.22;4944491;28;7052;-56